Time;durP1;ratioP1;P1;durP2;ratioP2;P2;SDS_P1;SDS_P2;PMS_P1;PMS_P2;Temp;Humidity;BMP_temperature;BMP_pressure;BME280_temperature;BME280_humidity;BME280_pressure;Samples;Min_cycle;Max_cycle;Signal;HPM_P1;HPM_P2
2023/10/24 00:02:10;;;;;;;2.07;1.53;;;22.30;95.90;;;;;;4976863;28;20492;-61
2023/10/24 00:04:37;;;;;;;3.77;1.77;;;22.40;96.00;;;;;;4973082;28;20467;-62
2023/10/24 00:07:03;;;;;;;2.30;1.23;;;22.40;96.00;;;;;;4978410;28;20460;-61
2023/10/24 00:09:32;;;;;;;2.07;1.70;;;22.30;95.90;;;;;;4978135;28;20471;-61
2023/10/24 00:11:58;;;;;;;2.60;1.60;;;22.30;95.90;;;;;;4981299;28;20599;-61
2023/10/24 00:14:25;;;;;;;4.03;1.93;;;22.40;96.00;;;;;;4983905;28;20459;-61
2023/10/24 00:16:52;;;;;;;2.70;1.30;;;22.40;96.00;;;;;;4983836;28;20455;-61
2023/10/24 00:19:18;;;;;;;1.97;1.30;;;22.30;95.90;;;;;;4983706;28;20464;-61
2023/10/24 00:21:45;;;;;;;2.50;1.40;;;22.40;96.00;;;;;;4982868;28;20471;-61
2023/10/24 00:24:12;;;;;;;1.90;1.50;;;22.30;95.90;;;;;;4983442;28;20950;-61
2023/10/24 00:26:40;;;;;;;1.87;1.10;;;22.30;96.00;;;;;;4981425;28;20874;-61
2023/10/24 00:29:07;;;;;;;2.60;1.67;;;22.30;95.90;;;;;;4984403;28;20485;-61
2023/10/24 00:31:34;;;;;;;2.10;1.40;;;22.30;95.90;;;;;;4983979;28;21008;-61
2023/10/24 00:34:00;;;;;;;2.37;1.40;;;22.30;95.90;;;;;;4983444;28;20475;-61
2023/10/24 00:36:27;;;;;;;2.00;1.80;;;22.30;96.00;;;;;;4984392;28;20482;-61
2023/10/24 00:38:54;;;;;;;4.77;2.50;;;22.30;95.90;;;;;;4985497;28;21039;-61
2023/10/24 00:41:21;;;;;;;3.00;1.43;;;22.20;95.90;;;;;;4987198;28;20793;-61
2023/10/24 00:43:49;;;;;;;1.50;1.20;;;22.30;96.00;;;;;;4979027;28;20456;-61
2023/10/24 00:46:16;;;;;;;1.47;1.33;;;22.20;95.90;;;;;;4983288;28;20474;-61
2023/10/24 00:48:43;;;;;;;2.23;1.53;;;22.30;96.00;;;;;;4983715;28;20515;-61
2023/10/24 00:51:10;;;;;;;1.87;1.47;;;22.30;96.00;;;;;;4983768;28;20762;-62
2023/10/24 00:53:37;;;;;;;3.27;1.70;;;22.30;96.00;;;;;;4984294;28;20471;-61
2023/10/24 00:56:04;;;;;;;1.77;1.40;;;22.20;96.00;;;;;;4982076;28;20466;-61
2023/10/24 00:58:31;;;;;;;2.00;1.80;;;22.20;95.90;;;;;;4982873;28;20470;-61
2023/10/24 01:01:01;;;;;;;2.13;1.40;;;22.30;96.00;;;;;;4981466;28;20501;-61
2023/10/24 01:03:28;;;;;;;2.57;1.60;;;22.20;96.30;;;;;;4982164;28;20465;-62
2023/10/24 01:05:55;;;;;;;2.77;1.47;;;22.20;96.00;;;;;;4981464;28;21077;-61
2023/10/24 01:08:22;;;;;;;1.90;1.57;;;22.20;96.00;;;;;;4980875;28;20467;-61
2023/10/24 01:10:49;;;;;;;2.90;1.50;;;22.20;96.00;;;;;;4979222;28;21458;-61
2023/10/24 01:13:16;;;;;;;1.33;1.23;;;22.20;96.00;;;;;;4980446;28;21267;-62
2023/10/24 01:15:43;;;;;;;1.30;1.00;;;22.20;96.00;;;;;;4981905;28;22417;-62
2023/10/24 01:18:11;;;;;;;2.70;1.73;;;22.20;96.00;;;;;;4980811;28;21288;-62
2023/10/24 01:20:39;;;;;;;1.50;1.30;;;22.20;96.00;;;;;;4981007;28;20468;-62
2023/10/24 01:23:08;;;;;;;1.43;1.33;;;22.30;96.00;;;;;;4980017;28;20471;-61
2023/10/24 01:25:38;;;;;;;1.30;1.20;;;22.10;96.00;;;;;;4979922;28;20475;-61
2023/10/24 01:28:06;;;;;;;1.80;1.10;;;22.20;96.00;;;;;;4978166;28;20464;-61
2023/10/24 01:30:33;;;;;;;1.60;1.30;;;22.10;96.00;;;;;;4980594;28;20962;-62
2023/10/24 01:33:00;;;;;;;2.10;1.40;;;22.10;95.90;;;;;;4977927;28;20802;-61
2023/10/24 01:35:26;;;;;;;1.60;1.50;;;22.10;96.00;;;;;;4979862;28;20455;-61
2023/10/24 01:37:53;;;;;;;1.43;1.10;;;22.10;96.00;;;;;;4978900;28;20464;-61
2023/10/24 01:40:21;;;;;;;1.67;1.30;;;22.10;96.00;;;;;;4980031;28;20979;-62
2023/10/24 01:42:48;;;;;;;1.60;1.37;;;22.10;96.00;;;;;;4980143;28;20472;-62
2023/10/24 01:45:15;;;;;;;1.70;1.60;;;22.10;96.00;;;;;;4981469;28;22508;-61
2023/10/24 01:47:42;;;;;;;1.50;1.17;;;22.10;96.00;;;;;;4982161;28;20967;-61
2023/10/24 01:50:10;;;;;;;2.27;1.43;;;22.10;96.00;;;;;;4977156;28;20455;-62
2023/10/24 01:52:36;;;;;;;1.53;1.10;;;22.10;96.00;;;;;;4981591;28;20510;-61
2023/10/24 01:55:04;;;;;;;1.30;1.10;;;22.10;96.00;;;;;;4982595;28;20467;-61
2023/10/24 01:57:32;;;;;;;1.97;1.13;;;22.10;96.00;;;;;;4981909;28;20459;-62
2023/10/24 01:59:58;;;;;;;1.40;1.20;;;22.10;96.00;;;;;;4980917;28;20477;-63
2023/10/24 02:02:26;;;;;;;2.30;1.60;;;22.10;96.00;;;;;;4980020;28;20472;-61
2023/10/24 02:04:53;;;;;;;1.70;1.17;;;22.10;96.10;;;;;;4980907;28;20464;-62
2023/10/24 02:07:20;;;;;;;2.10;1.90;;;22.00;96.00;;;;;;4981304;28;20846;-62
2023/10/24 02:09:46;;;;;;;1.60;1.13;;;22.00;96.00;;;;;;4978605;28;20739;-62
2023/10/24 02:12:13;;;;;;;2.10;1.50;;;22.00;96.00;;;;;;4978152;28;21210;-62
2023/10/24 02:14:41;;;;;;;2.43;1.67;;;22.00;96.00;;;;;;4981721;28;20459;-61
2023/10/24 02:17:08;;;;;;;1.97;1.17;;;22.00;96.00;;;;;;4979934;28;20468;-62
2023/10/24 02:19:35;;;;;;;2.20;1.50;;;22.00;96.10;;;;;;4979457;28;20959;-62
2023/10/24 02:22:02;;;;;;;1.73;1.17;;;22.00;96.00;;;;;;4981438;28;20924;-62
2023/10/24 02:24:28;;;;;;;1.50;1.13;;;22.00;96.00;;;;;;4980783;28;21259;-62
2023/10/24 02:26:55;;;;;;;1.70;1.50;;;22.00;96.10;;;;;;4981632;28;20647;-61
2023/10/24 02:29:22;;;;;;;1.40;1.30;;;22.00;96.10;;;;;;4978767;28;20972;-62
2023/10/24 02:31:50;;;;;;;1.77;1.30;;;22.00;96.10;;;;;;4975464;28;20477;-61
2023/10/24 02:34:16;;;;;;;3.10;1.33;;;22.00;96.10;;;;;;4980745;28;20462;-62
2023/10/24 02:36:43;;;;;;;1.60;1.10;;;21.90;96.40;;;;;;4979498;28;20459;-62
2023/10/24 02:39:10;;;;;;;1.87;1.40;;;21.90;96.00;;;;;;4979471;28;20963;-62
2023/10/24 02:41:37;;;;;;;1.87;1.40;;;21.90;96.00;;;;;;4979339;28;20499;-61
2023/10/24 02:44:04;;;;;;;1.20;0.97;;;22.00;96.10;;;;;;4981648;28;21070;-61
2023/10/24 02:46:30;;;;;;;1.20;1.07;;;21.90;96.10;;;;;;4982637;28;20924;-62
2023/10/24 02:48:58;;;;;;;1.30;1.20;;;21.90;96.10;;;;;;4977276;28;21033;-62
2023/10/24 02:51:25;;;;;;;3.03;1.30;;;21.90;96.10;;;;;;4978293;28;20487;-62
2023/10/24 02:53:52;;;;;;;1.67;1.30;;;21.90;96.10;;;;;;4979254;28;21014;-61
2023/10/24 02:56:19;;;;;;;2.10;1.27;;;21.90;96.10;;;;;;4976586;28;20473;-62
2023/10/24 02:58:45;;;;;;;1.40;1.20;;;21.90;96.10;;;;;;4979601;28;20463;-62
2023/10/24 03:01:13;;;;;;;1.40;1.20;;;21.90;96.10;;;;;;4978738;28;20967;-61
2023/10/24 03:03:40;;;;;;;1.97;1.33;;;21.90;96.10;;;;;;4981021;28;20455;-62
2023/10/24 03:06:15;;;;;;;2.00;1.13;;;21.80;96.10;;;;;;4979409;28;20453;-61
2023/10/24 03:08:42;;;;;;;1.70;1.17;;;21.90;96.10;;;;;;4981905;28;20455;-62
2023/10/24 03:11:09;;;;;;;1.73;1.20;;;21.90;96.10;;;;;;4982175;28;20455;-61
2023/10/24 03:13:36;;;;;;;1.60;1.00;;;21.90;96.20;;;;;;4979864;28;20460;-61
2023/10/24 03:16:03;;;;;;;1.50;1.17;;;21.80;96.10;;;;;;4977270;28;20459;-61
2023/10/24 03:18:31;;;;;;;1.53;1.43;;;21.80;96.10;;;;;;4979874;28;20558;-61
2023/10/24 03:20:58;;;;;;;1.10;0.90;;;21.80;96.10;;;;;;4978620;28;20463;-61
2023/10/24 03:23:26;;;;;;;2.00;1.30;;;21.80;96.10;;;;;;4979071;28;20554;-61
2023/10/24 03:25:53;;;;;;;1.20;1.07;;;21.80;96.10;;;;;;4981745;28;20459;-61
2023/10/24 03:28:20;;;;;;;1.30;1.00;;;21.80;96.10;;;;;;4983236;28;20467;-61
2023/10/24 03:30:48;;;;;;;1.57;1.30;;;21.80;96.10;;;;;;4981378;28;20464;-61
2023/10/24 03:33:14;;;;;;;1.87;1.10;;;21.80;96.10;;;;;;4981928;28;20483;-61
2023/10/24 03:35:41;;;;;;;1.87;1.10;;;21.80;96.20;;;;;;4981153;28;20467;-61
2023/10/24 03:38:08;;;;;;;1.10;1.00;;;21.80;96.20;;;;;;4980321;28;21000;-61
2023/10/24 03:40:39;;;;;;;1.40;1.10;;;21.80;96.50;;;;;;4981653;28;20462;-62
2023/10/24 03:43:06;;;;;;;1.47;1.13;;;21.80;96.20;;;;;;4981319;28;20925;-61
2023/10/24 03:45:33;;;;;;;1.97;1.87;;;21.80;96.20;;;;;;4980797;28;20475;-62
2023/10/24 03:47:59;;;;;;;1.40;1.20;;;21.80;96.20;;;;;;4981478;28;20466;-62
2023/10/24 03:50:26;;;;;;;1.20;0.90;;;21.70;96.20;;;;;;4985385;28;20450;-61
2023/10/24 03:52:53;;;;;;;1.23;1.07;;;21.80;96.20;;;;;;4983338;28;20486;-61
2023/10/24 03:55:20;;;;;;;1.60;1.13;;;21.80;96.20;;;;;;4985815;28;20471;-62
2023/10/24 03:57:48;;;;;;;1.37;1.10;;;21.70;96.20;;;;;;4982510;28;20812;-61
2023/10/24 04:00:15;;;;;;;1.60;0.90;;;21.70;96.30;;;;;;4979139;28;20452;-62
2023/10/24 04:02:42;;;;;;;1.60;1.37;;;21.70;96.20;;;;;;4981619;28;20466;-62
2023/10/24 04:05:10;;;;;;;1.50;1.17;;;21.70;96.20;;;;;;4982621;28;20472;-62
2023/10/24 04:07:37;;;;;;;1.30;1.20;;;21.70;96.30;;;;;;4982936;28;20819;-62
2023/10/24 04:10:05;;;;;;;3.00;1.47;;;21.70;96.20;;;;;;4983187;28;20466;-61
2023/10/24 04:12:32;;;;;;;2.57;1.50;;;21.70;96.20;;;;;;4983667;28;21068;-61
2023/10/24 04:15:00;;;;;;;1.60;1.13;;;21.70;96.20;;;;;;4983822;28;20467;-62
2023/10/24 04:17:27;;;;;;;1.20;1.10;;;21.70;96.20;;;;;;4980082;28;20947;-61
2023/10/24 04:19:53;;;;;;;2.10;1.20;;;21.70;96.20;;;;;;4979700;28;20467;-61
2023/10/24 04:22:20;;;;;;;1.20;1.03;;;21.70;96.30;;;;;;4983322;28;20470;-62
2023/10/24 04:24:47;;;;;;;1.43;1.00;;;21.70;96.30;;;;;;4982481;28;20463;-61
2023/10/24 04:27:14;;;;;;;2.90;1.03;;;21.70;96.30;;;;;;4981242;28;20467;-61
2023/10/24 04:29:42;;;;;;;1.30;1.10;;;21.70;96.30;;;;;;4981923;28;20649;-61
2023/10/24 04:32:10;;;;;;;1.60;1.20;;;21.70;96.30;;;;;;4980623;28;21124;-62
2023/10/24 04:34:36;;;;;;;1.70;1.30;;;21.70;96.30;;;;;;4982312;28;20984;-61
2023/10/24 04:37:04;;;;;;;1.50;1.20;;;21.70;96.30;;;;;;4983654;28;20457;-62
2023/10/24 04:39:31;;;;;;;1.20;1.00;;;21.60;96.30;;;;;;4981363;28;20470;-61
2023/10/24 04:41:57;;;;;;;1.87;1.20;;;21.60;96.30;;;;;;4983592;28;20461;-61
2023/10/24 04:44:24;;;;;;;2.13;1.40;;;21.60;96.30;;;;;;4983696;28;20959;-62
2023/10/24 04:46:51;;;;;;;1.53;1.10;;;21.70;96.30;;;;;;4980883;28;20467;-61
2023/10/24 04:49:19;;;;;;;1.30;0.97;;;21.60;96.30;;;;;;4980714;28;20538;-61
2023/10/24 04:51:46;;;;;;;1.20;1.10;;;21.60;96.30;;;;;;4982680;28;20456;-62
2023/10/24 04:54:13;;;;;;;1.97;1.30;;;21.60;96.30;;;;;;4982580;28;20857;-62
2023/10/24 04:56:40;;;;;;;1.47;1.20;;;21.70;96.40;;;;;;4982542;28;20963;-61
2023/10/24 04:59:07;;;;;;;1.30;1.20;;;21.60;96.30;;;;;;4982006;28;20459;-61
2023/10/24 05:01:37;;;;;;;3.10;1.10;;;21.60;96.30;;;;;;4983618;28;20459;-62
2023/10/24 05:04:04;;;;;;;1.37;1.00;;;21.60;96.40;;;;;;4982304;28;20459;-61
2023/10/24 05:06:32;;;;;;;1.60;1.50;;;21.60;96.40;;;;;;4985293;28;20813;-61
2023/10/24 05:09:00;;;;;;;1.30;0.90;;;21.60;96.40;;;;;;4983617;28;20476;-61
2023/10/24 05:11:26;;;;;;;1.83;1.17;;;21.60;96.40;;;;;;4984105;28;20496;-62
2023/10/24 05:13:53;;;;;;;1.20;1.00;;;21.60;96.40;;;;;;4984358;28;20576;-62
2023/10/24 05:16:20;;;;;;;1.30;0.90;;;21.60;96.70;;;;;;4985528;28;20497;-62
2023/10/24 05:18:47;;;;;;;1.30;1.13;;;21.60;96.40;;;;;;4986466;28;20979;-61
2023/10/24 05:21:13;;;;;;;1.30;0.97;;;21.60;96.40;;;;;;4986846;28;22272;-61
2023/10/24 05:23:41;;;;;;;1.23;1.03;;;21.60;96.40;;;;;;4983554;28;20467;-62
2023/10/24 05:26:08;;;;;;;1.60;1.40;;;21.60;96.40;;;;;;4984665;28;20456;-62
2023/10/24 05:28:35;;;;;;;1.27;1.00;;;21.60;96.40;;;;;;4985665;28;20463;-61
2023/10/24 05:31:07;;;;;;;1.87;1.40;;;21.50;96.40;;;;;;4985453;28;20467;-61
2023/10/24 05:33:34;;;;;;;2.17;1.20;;;21.50;96.40;;;;;;4983958;28;20478;-62
2023/10/24 05:36:00;;;;;;;1.10;0.97;;;21.50;96.40;;;;;;4981266;28;20471;-62
2023/10/24 05:38:27;;;;;;;1.20;1.00;;;21.60;96.40;;;;;;4982997;28;20460;-62
2023/10/24 05:40:55;;;;;;;1.10;1.00;;;21.50;96.40;;;;;;4980010;28;20459;-62
2023/10/24 05:43:22;;;;;;;1.00;0.90;;;21.50;96.40;;;;;;4982488;28;20478;-62
2023/10/24 05:45:49;;;;;;;2.03;1.27;;;21.50;96.40;;;;;;4981418;28;20469;-62
2023/10/24 05:48:16;;;;;;;1.30;1.03;;;21.60;96.50;;;;;;4983735;28;20975;-62
2023/10/24 05:50:44;;;;;;;2.37;1.10;;;21.50;96.50;;;;;;4978471;28;20455;-61
2023/10/24 05:53:10;;;;;;;1.70;1.20;;;21.50;96.50;;;;;;4981264;28;20831;-61
2023/10/24 05:55:37;;;;;;;2.03;1.10;;;21.50;96.50;;;;;;4981639;28;20464;-62
2023/10/24 05:58:05;;;;;;;1.57;1.30;;;21.50;96.40;;;;;;4981121;28;20467;-62
2023/10/24 06:00:32;;;;;;;1.20;1.10;;;21.50;96.50;;;;;;4982934;28;20537;-62
2023/10/24 06:02:59;;;;;;;1.20;1.00;;;21.50;96.50;;;;;;4979714;28;21021;-61
2023/10/24 06:05:25;;;;;;;1.40;1.00;;;21.50;96.50;;;;;;4981879;28;20892;-61
2023/10/24 06:07:52;;;;;;;1.33;1.00;;;21.50;96.50;;;;;;4980895;28;20528;-61
2023/10/24 06:10:19;;;;;;;1.20;1.03;;;21.40;96.40;;;;;;4976055;28;20819;-61
2023/10/24 06:12:46;;;;;;;1.50;1.40;;;21.50;96.50;;;;;;4980490;28;21029;-61
2023/10/24 06:15:14;;;;;;;3.00;1.20;;;21.50;96.50;;;;;;4979669;28;21087;-61
2023/10/24 06:17:41;;;;;;;1.10;1.00;;;21.50;96.60;;;;;;4981635;28;21025;-61
2023/10/24 06:20:09;;;;;;;1.10;0.93;;;21.40;96.50;;;;;;4982147;28;20971;-62
2023/10/24 06:22:35;;;;;;;1.30;0.90;;;21.40;96.50;;;;;;4979047;28;20498;-62
2023/10/24 06:25:02;;;;;;;1.10;1.00;;;21.40;96.60;;;;;;4976148;28;20207;-61
2023/10/24 06:27:29;;;;;;;3.00;1.10;;;21.50;96.70;;;;;;4978256;28;20232;-62
2023/10/24 06:29:56;;;;;;;1.50;1.00;;;21.50;96.80;;;;;;4980107;28;20586;-62
2023/10/24 06:32:24;;;;;;;1.40;1.07;;;21.50;96.90;;;;;;4980726;28;20583;-61
2023/10/24 06:34:50;;;;;;;1.33;1.20;;;21.60;97.00;;;;;;4978781;28;20467;-61
2023/10/24 06:37:17;;;;;;;1.20;0.90;;;21.50;97.00;;;;;;4977620;28;20469;-64
2023/10/24 06:39:44;;;;;;;2.03;1.03;;;21.50;97.30;;;;;;4976546;28;20950;-61
2023/10/24 06:42:11;;;;;;;1.30;1.00;;;21.50;97.50;;;;;;4979226;28;20461;-60
2023/10/24 06:44:37;;;;;;;2.03;1.80;;;21.60;97.50;;;;;;4981709;28;20464;-62
2023/10/24 06:47:04;;;;;;;2.73;2.23;;;21.60;97.60;;;;;;4978181;28;20460;-61
2023/10/24 06:49:32;;;;;;;2.60;1.03;;;21.60;97.50;;;;;;4977681;28;20459;-60
2023/10/24 06:51:59;;;;;;;1.33;0.97;;;21.60;97.50;;;;;;4980553;28;20466;-61
2023/10/24 06:54:26;;;;;;;3.13;1.00;;;21.60;97.50;;;;;;4978487;28;20872;-60
2023/10/24 06:56:53;;;;;;;3.83;1.03;;;21.70;97.50;;;;;;4978216;28;20460;-61
2023/10/24 06:59:20;;;;;;;1.30;0.90;;;21.70;97.50;;;;;;4975983;28;20623;-61
2023/10/24 07:01:48;;;;;;;3.30;0.80;;;21.60;97.40;;;;;;4979221;28;20471;-61
2023/10/24 07:04:13;;;;;;;1.40;1.30;;;21.70;97.50;;;;;;4978329;28;20466;-61
2023/10/24 07:06:42;;;;;;;1.03;0.80;;;21.70;97.40;;;;;;4983149;28;20448;-60
2023/10/24 07:09:09;;;;;;;2.07;1.20;;;21.70;97.40;;;;;;4978653;28;20199;-61
2023/10/24 07:11:36;;;;;;;1.10;1.00;;;21.70;97.40;;;;;;4983219;28;20476;-60
2023/10/24 07:14:03;;;;;;;1.37;1.00;;;21.70;97.40;;;;;;4978951;28;21066;-61
2023/10/24 07:16:30;;;;;;;1.33;0.97;;;21.70;97.40;;;;;;4982304;28;20463;-61
2023/10/24 07:18:57;;;;;;;1.70;0.93;;;21.80;97.50;;;;;;4978486;28;20470;-61
2023/10/24 07:21:23;;;;;;;1.10;0.90;;;21.80;97.50;;;;;;4980199;28;22249;-61
2023/10/24 07:23:54;;;;;;;1.30;1.17;;;21.80;97.50;;;;;;4981184;28;20475;-60
2023/10/24 07:26:21;;;;;;;1.10;0.90;;;21.80;97.50;;;;;;4982806;28;20462;-61
2023/10/24 07:28:48;;;;;;;1.30;1.10;;;21.80;97.50;;;;;;4981048;28;21039;-60
2023/10/24 07:31:14;;;;;;;5.07;1.10;;;21.80;97.40;;;;;;4982885;28;20478;-61
2023/10/24 07:33:42;;;;;;;1.53;1.27;;;21.80;97.40;;;;;;4979953;28;20576;-61
2023/10/24 07:36:09;;;;;;;1.70;1.20;;;21.80;97.40;;;;;;4982062;28;20954;-62
2023/10/24 07:38:36;;;;;;;10.00;1.47;;;22.00;97.40;;;;;;4981316;28;20456;-61
2023/10/24 07:41:04;;;;;;;2.13;1.53;;;21.80;97.40;;;;;;4979846;28;20781;-62
2023/10/24 07:43:31;;;;;;;1.37;1.10;;;21.80;97.50;;;;;;4973294;28;20583;-62
2023/10/24 07:45:58;;;;;;;3.07;1.10;;;21.80;97.50;;;;;;4979867;28;20586;-62
2023/10/24 07:48:26;;;;;;;2.20;0.90;;;21.80;97.60;;;;;;4983035;28;20455;-63
2023/10/24 07:50:53;;;;;;;4.50;1.33;;;21.90;97.70;;;;;;4979149;28;20561;-63
2023/10/24 07:53:20;;;;;;;2.07;1.20;;;21.80;97.70;;;;;;4973444;28;20489;-63
2023/10/24 07:55:47;;;;;;;3.43;1.10;;;21.90;97.80;;;;;;4973736;28;20674;-63
2023/10/24 07:58:17;;;;;;;2.27;1.30;;;21.90;97.90;;;;;;4977153;28;20502;-63
2023/10/24 08:00:44;;;;;;;1.50;0.90;;;21.90;97.90;;;;;;4976700;28;21121;-63
2023/10/24 08:03:12;;;;;;;2.00;0.97;;;21.90;97.90;;;;;;4971500;28;20467;-63
2023/10/24 08:05:39;;;;;;;1.43;1.00;;;21.90;97.90;;;;;;4978363;28;20482;-63
2023/10/24 08:08:06;;;;;;;2.20;1.83;;;22.00;97.90;;;;;;4979335;28;20576;-63
2023/10/24 08:10:33;;;;;;;3.10;1.50;;;21.90;97.80;;;;;;4980082;28;20464;-63
2023/10/24 08:13:00;;;;;;;1.60;1.03;;;22.00;97.80;;;;;;4977749;28;21235;-63
2023/10/24 08:15:28;;;;;;;5.37;1.10;;;22.00;97.80;;;;;;4982255;28;20452;-63
2023/10/24 08:17:55;;;;;;;1.23;1.07;;;22.00;97.80;;;;;;4980514;28;20460;-63
2023/10/24 08:20:22;;;;;;;4.60;1.10;;;22.00;97.80;;;;;;4982535;28;20460;-63
2023/10/24 08:22:49;;;;;;;1.30;1.03;;;22.00;97.80;;;;;;4983109;28;20470;-63
2023/10/24 08:25:16;;;;;;;1.13;1.03;;;22.00;98.10;;;;;;4980092;28;20613;-63
2023/10/24 08:27:44;;;;;;;1.67;0.83;;;22.00;97.80;;;;;;4981567;28;20627;-63
2023/10/24 08:30:12;;;;;;;1.93;0.90;;;22.00;97.80;;;;;;4982026;28;20464;-63
2023/10/24 08:32:40;;;;;;;1.10;0.87;;;22.10;97.80;;;;;;4983028;28;20464;-63
2023/10/24 08:35:08;;;;;;;1.30;1.00;;;22.10;97.80;;;;;;4978817;28;20467;-63
2023/10/24 08:37:35;;;;;;;1.73;1.10;;;22.10;97.80;;;;;;4985072;28;20495;-63
2023/10/24 08:40:02;;;;;;;2.40;1.00;;;22.10;97.80;;;;;;4986438;28;20463;-63
2023/10/24 08:42:30;;;;;;;1.30;1.00;;;22.10;97.90;;;;;;4984419;28;21003;-63
2023/10/24 08:44:58;;;;;;;2.20;1.10;;;22.10;97.90;;;;;;4984543;28;20581;-63
2023/10/24 08:47:26;;;;;;;1.97;0.90;;;22.10;97.90;;;;;;4985283;28;20465;-63
2023/10/24 08:49:56;;;;;;;2.63;1.30;;;22.10;97.80;;;;;;4984756;28;20947;-63
2023/10/24 08:52:23;;;;;;;2.70;1.00;;;22.10;97.80;;;;;;4985600;28;20771;-63
2023/10/24 08:54:51;;;;;;;4.30;1.33;;;22.10;97.80;;;;;;4984153;28;21080;-63
2023/10/24 08:57:22;;;;;;;1.03;0.80;;;22.10;97.90;;;;;;4983843;28;20843;-63
2023/10/24 08:59:49;;;;;;;3.70;1.10;;;22.10;97.90;;;;;;4980982;28;20552;-63
2023/10/24 09:02:18;;;;;;;2.03;0.90;;;22.10;97.90;;;;;;4982323;28;20794;-63
2023/10/24 09:04:45;;;;;;;1.80;1.03;;;22.10;97.90;;;;;;4985011;28;20828;-63
2023/10/24 09:07:13;;;;;;;1.57;0.80;;;22.10;97.90;;;;;;4980249;28;20488;-63
2023/10/24 09:09:40;;;;;;;1.60;1.10;;;22.20;97.90;;;;;;4982160;28;20464;-63
2023/10/24 09:12:09;;;;;;;2.20;0.80;;;22.20;97.90;;;;;;4984162;28;20471;-63
2023/10/24 09:14:36;;;;;;;1.23;0.90;;;22.20;97.90;;;;;;4980482;28;20581;-63
2023/10/24 09:17:04;;;;;;;1.30;0.90;;;22.20;97.90;;;;;;4983406;28;20470;-63
2023/10/24 09:19:31;;;;;;;1.37;0.80;;;22.20;97.90;;;;;;4981324;28;20460;-63
2023/10/24 09:21:58;;;;;;;5.73;1.83;;;22.20;97.90;;;;;;4980893;28;20859;-63
2023/10/24 09:24:26;;;;;;;1.10;0.90;;;22.20;98.20;;;;;;4980810;28;20952;-63
2023/10/24 09:26:54;;;;;;;1.20;1.00;;;22.20;97.90;;;;;;4980205;28;20460;-63
2023/10/24 09:29:24;;;;;;;1.43;0.90;;;22.20;98.30;;;;;;4980005;28;20958;-63
2023/10/24 09:31:51;;;;;;;1.43;1.00;;;22.20;97.90;;;;;;4982906;28;20462;-63
2023/10/24 09:34:18;;;;;;;1.80;0.93;;;22.10;97.80;;;;;;4982332;28;20486;-63
2023/10/24 09:36:46;;;;;;;1.07;0.87;;;22.20;97.80;;;;;;4983262;28;20586;-63
2023/10/24 09:39:14;;;;;;;3.03;1.10;;;22.20;97.80;;;;;;4984263;28;20723;-63
2023/10/24 09:41:43;;;;;;;1.97;0.90;;;22.20;97.80;;;;;;4985033;28;20472;-63
2023/10/24 09:44:10;;;;;;;1.40;0.90;;;22.20;97.80;;;;;;4980751;28;21382;-63
2023/10/24 09:46:38;;;;;;;3.33;0.90;;;22.20;97.80;;;;;;4982974;28;20452;-63
2023/10/24 09:49:05;;;;;;;1.00;0.80;;;22.20;97.80;;;;;;4982907;28;21082;-63
2023/10/24 09:51:35;;;;;;;1.10;0.80;;;22.20;97.80;;;;;;4984326;28;20494;-63
2023/10/24 09:54:03;;;;;;;1.50;1.17;;;22.20;97.70;;;;;;4985523;28;20823;-63
2023/10/24 09:56:30;;;;;;;1.37;0.90;;;22.20;97.80;;;;;;4983521;28;20955;-63
2023/10/24 09:58:59;;;;;;;2.67;0.90;;;22.20;97.70;;;;;;4980163;28;20467;-63
2023/10/24 10:01:27;;;;;;;2.00;0.90;;;22.20;97.80;;;;;;4982028;28;20898;-63
2023/10/24 10:03:56;;;;;;;1.43;0.83;;;22.20;97.80;;;;;;4981543;28;20914;-63
2023/10/24 10:06:26;;;;;;;1.50;1.10;;;22.30;97.80;;;;;;4981770;28;20876;-63
2023/10/24 10:08:56;;;;;;;1.10;0.90;;;22.20;97.70;;;;;;4981471;28;20464;-63
2023/10/24 10:11:25;;;;;;;3.00;0.80;;;22.30;98.00;;;;;;4979694;28;20464;-63
2023/10/24 10:13:55;;;;;;;1.30;0.90;;;22.30;97.80;;;;;;4980989;28;20916;-63
2023/10/24 10:16:39;;;;;;;2.67;1.20;;;22.20;97.70;;;;;;4981885;28;20936;-63
2023/10/24 10:19:39;;;;;;;2.07;1.10;;;22.20;97.70;;;;;;4980819;28;20463;-63
2023/10/24 10:22:30;;;;;;;1.00;0.80;;;22.20;97.70;;;;;;4946589;28;21039;-63
2023/10/24 10:25:32;;;;;;;1.50;1.10;;;22.20;97.70;;;;;;4980848;28;20492;-63
2023/10/24 10:28:11;;;;;;;1.60;0.80;;;22.30;97.70;;;;;;4980093;28;20459;-63
2023/10/24 10:30:46;;;;;;;1.00;0.80;;;22.20;97.70;;;;;;4982936;28;20459;-63
2023/10/24 10:33:17;;;;;;;1.60;0.83;;;22.30;97.70;;;;;;4983349;28;20471;-63
2023/10/24 10:35:50;;;;;;;2.03;0.80;;;22.30;97.80;;;;;;4984885;28;22282;-63
2023/10/24 10:38:25;;;;;;;0.90;0.70;;;22.30;97.70;;;;;;4984149;28;20455;-63
2023/10/24 10:40:52;;;;;;;1.43;0.70;;;22.30;97.70;;;;;;4983234;28;20460;-63
2023/10/24 10:43:31;;;;;;;1.00;0.87;;;22.30;97.70;;;;;;4982797;28;20472;-64
2023/10/24 10:46:16;;;;;;;2.17;1.00;;;22.40;98.20;;;;;;4982842;28;20460;-63
2023/10/24 10:48:44;;;;;;;1.53;0.90;;;22.30;97.70;;;;;;4982767;28;21273;-63
2023/10/24 10:51:13;;;;;;;1.30;0.90;;;22.30;97.70;;;;;;4983909;28;20463;-63
2023/10/24 10:53:47;;;;;;;1.40;1.00;;;22.20;97.70;;;;;;4984827;28;20459;-63
2023/10/24 10:56:19;;;;;;;1.20;1.00;;;22.30;97.70;;;;;;4982939;28;20455;-63
2023/10/24 10:59:10;;;;;;;1.00;0.80;;;22.30;97.70;;;;;;4981944;28;20463;-63
2023/10/24 11:01:50;;;;;;;6.20;2.90;;;22.30;97.70;;;;;;4983537;28;20483;-63
2023/10/24 11:04:19;;;;;;;1.10;0.97;;;22.30;97.70;;;;;;4982671;28;20463;-63
2023/10/24 11:06:51;;;;;;;1.10;0.80;;;22.30;97.70;;;;;;4982931;28;20481;-63
2023/10/24 11:09:20;;;;;;;1.30;1.03;;;22.30;97.70;;;;;;4983729;28;20554;-63
2023/10/24 11:11:47;;;;;;;2.90;1.00;;;22.30;97.70;;;;;;4984056;28;20455;-63
2023/10/24 11:14:15;;;;;;;1.00;0.80;;;22.30;97.70;;;;;;4978900;28;20520;-63
2023/10/24 11:16:43;;;;;;;1.83;0.90;;;22.30;97.70;;;;;;4982197;28;20459;-63
2023/10/24 11:19:11;;;;;;;1.20;0.90;;;22.30;97.70;;;;;;4980594;28;20548;-63
2023/10/24 11:21:39;;;;;;;1.07;0.80;;;22.30;97.70;;;;;;4981609;28;20949;-63
2023/10/24 11:24:09;;;;;;;1.30;1.13;;;22.30;97.70;;;;;;4983397;28;20459;-63
2023/10/24 11:26:35;;;;;;;1.23;0.90;;;22.30;97.70;;;;;;4980724;28;20955;-63
2023/10/24 11:29:02;;;;;;;1.67;0.90;;;22.30;97.70;;;;;;4979249;28;20463;-63
2023/10/24 11:31:29;;;;;;;1.03;0.87;;;22.30;97.70;;;;;;4982798;28;20549;-63
2023/10/24 11:33:57;;;;;;;1.43;1.10;;;22.40;97.80;;;;;;4980051;28;20459;-63
2023/10/24 11:36:24;;;;;;;1.07;0.80;;;22.40;97.80;;;;;;4981164;28;21004;-63
2023/10/24 11:38:52;;;;;;;1.90;1.10;;;22.30;97.70;;;;;;4982770;28;20471;-63
2023/10/24 11:41:19;;;;;;;1.00;0.87;;;22.30;97.70;;;;;;4982810;28;20928;-63
2023/10/24 11:43:47;;;;;;;1.40;0.77;;;22.30;97.70;;;;;;4982057;28;20464;-62
2023/10/24 11:46:14;;;;;;;1.17;0.80;;;22.30;97.70;;;;;;4981747;28;20843;-62
2023/10/24 11:48:41;;;;;;;1.20;0.90;;;22.30;97.70;;;;;;4982372;28;20459;-62
2023/10/24 11:51:09;;;;;;;1.10;0.80;;;22.40;97.80;;;;;;4979432;28;20458;-62
2023/10/24 11:53:36;;;;;;;1.20;0.70;;;22.40;97.70;;;;;;4985253;28;20550;-62
2023/10/24 11:56:04;;;;;;;1.20;1.00;;;22.30;97.70;;;;;;4984396;28;20491;-62
2023/10/24 11:58:32;;;;;;;0.93;0.73;;;22.40;97.70;;;;;;4983789;28;20499;-62
2023/10/24 12:01:00;;;;;;;1.00;0.70;;;22.40;97.70;;;;;;4983566;28;20590;-62
2023/10/24 12:03:27;;;;;;;1.30;1.07;;;22.40;97.70;;;;;;4982123;28;20836;-62
2023/10/24 12:05:55;;;;;;;0.97;0.80;;;22.40;97.70;;;;;;4982125;28;20467;-62
2023/10/24 12:08:24;;;;;;;1.00;0.80;;;22.40;97.70;;;;;;4981968;28;20507;-62
2023/10/24 12:10:54;;;;;;;1.30;0.80;;;22.40;97.70;;;;;;4980350;28;20460;-63
2023/10/24 12:13:23;;;;;;;2.43;1.10;;;22.40;98.10;;;;;;4983602;28;20483;-63
2023/10/24 12:15:50;;;;;;;1.27;0.90;;;22.40;97.50;;;;;;4982795;28;20598;-62
2023/10/24 12:18:17;;;;;;;3.00;1.47;;;22.30;96.70;;;;;;4976191;28;20805;-63
2023/10/24 12:20:43;;;;;;;1.30;0.90;;;22.30;96.30;;;;;;4981205;28;20475;-63
2023/10/24 12:23:10;;;;;;;1.73;1.33;;;22.30;94.90;;;;;;4980742;28;20471;-63
2023/10/24 12:25:37;;;;;;;1.97;1.20;;;22.30;93.80;;;;;;4983004;28;21324;-63
2023/10/24 12:28:04;;;;;;;2.27;1.40;;;22.20;93.20;;;;;;4978945;28;20467;-62
2023/10/24 12:30:32;;;;;;;1.17;0.90;;;22.10;93.40;;;;;;4979786;28;20893;-62
2023/10/24 12:32:59;;;;;;;3.67;1.63;;;22.10;93.40;;;;;;4981071;28;20476;-62
2023/10/24 12:35:26;;;;;;;1.93;1.20;;;22.10;93.50;;;;;;4979484;28;20476;-62
2023/10/24 12:37:53;;;;;;;1.77;1.20;;;22.00;93.20;;;;;;4979602;28;20462;-62
2023/10/24 12:40:19;;;;;;;1.67;1.20;;;22.00;93.10;;;;;;4980684;28;20463;-62
2023/10/24 12:42:46;;;;;;;2.97;1.03;;;22.00;93.40;;;;;;4983209;28;20460;-62
2023/10/24 12:45:13;;;;;;;1.30;1.17;;;22.00;93.10;;;;;;4978754;28;20455;-62
2023/10/24 12:47:41;;;;;;;1.33;1.00;;;22.00;92.90;;;;;;4981208;28;20479;-63
2023/10/24 12:50:08;;;;;;;1.67;1.23;;;22.10;92.80;;;;;;4978630;28;20479;-62
2023/10/24 12:52:35;;;;;;;1.20;1.03;;;22.00;92.90;;;;;;4978729;28;20859;-62